Terminal Aerodrome Forecast
Issued by NWS

Home | Current Version | Previous Version | Text Only | Print | Product List | Glossary On
Versions: 1 2 3 4 5 6 7 8 9 10 11 12 13 14 15 16 17 18 19 20
000
FTUS43 KICT 161523 AAA
TAFCNU
TAF AMD
KCNU 161523Z 1615/1712 12006KT P6SM BKN035 BKN200
      TEMPO 1615/1617 VRB20G30KT 5SM -TSRA BKN018CB
     FM161700 20011KT P6SM SCT030
     FM162300 19012KT P6SM VCTS BKN040CB
     FM170200 20011KT 6SM -SHRA VCTS BKN070CB
     FM170600 22010KT P6SM BKN050
     FM170800 25007KT P6SM BKN030=

USA.gov is the U.S. government's official web portal to all federal, state and local government web resources and services.